sensor_id;sensor_type;location;lat;lon;timestamp;P1;durP1;ratioP1;P2;durP2;ratioP2
72273;SDS011;60208;48.692;8.948;2023-12-20T00:02:20;1.50;;;1.40;;
72273;SDS011;60208;48.692;8.948;2023-12-20T00:04:45;22.48;;;15.90;;
72273;SDS011;60208;48.692;8.948;2023-12-20T00:07:11;14.70;;;10.30;;
72273;SDS011;60208;48.692;8.948;2023-12-20T00:09:36;28.42;;;22.17;;
72273;SDS011;60208;48.692;8.948;2023-12-20T00:12:01;92.20;;;65.78;;
72273;SDS011;60208;48.692;8.948;2023-12-20T00:14:26;46.20;;;34.50;;
72273;SDS011;60208;48.692;8.948;2023-12-20T00:16:52;35.65;;;25.60;;
72273;SDS011;60208;48.692;8.948;2023-12-20T00:19:17;113.85;;;77.60;;
72273;SDS011;60208;48.692;8.948;2023-12-20T00:21:42;92.03;;;62.33;;
72273;SDS011;60208;48.692;8.948;2023-12-20T00:24:07;6.82;;;5.60;;
72273;SDS011;60208;48.692;8.948;2023-12-20T00:26:33;6.35;;;1.45;;
72273;SDS011;60208;48.692;8.948;2023-12-20T00:28:58;2.22;;;1.40;;
72273;SDS011;60208;48.692;8.948;2023-12-20T00:31:23;2.77;;;1.30;;
72273;SDS011;60208;48.692;8.948;2023-12-20T00:33:48;4.63;;;3.22;;
72273;SDS011;60208;48.692;8.948;2023-12-20T00:36:14;39.92;;;27.83;;
72273;SDS011;60208;48.692;8.948;2023-12-20T00:38:39;11.63;;;8.77;;
72273;SDS011;60208;48.692;8.948;2023-12-20T00:41:04;7.60;;;6.30;;
72273;SDS011;60208;48.692;8.948;2023-12-20T00:43:29;4.67;;;3.50;;
72273;SDS011;60208;48.692;8.948;2023-12-20T00:45:55;4.90;;;4.37;;
72273;SDS011;60208;48.692;8.948;2023-12-20T00:48:20;30.38;;;21.58;;
72273;SDS011;60208;48.692;8.948;2023-12-20T00:50:46;9.77;;;6.45;;
72273;SDS011;60208;48.692;8.948;2023-12-20T00:53:11;4.65;;;3.42;;
72273;SDS011;60208;48.692;8.948;2023-12-20T00:55:36;15.47;;;11.60;;
72273;SDS011;60208;48.692;8.948;2023-12-20T00:58:01;10.02;;;7.45;;
72273;SDS011;60208;48.692;8.948;2023-12-20T01:00:27;5.30;;;4.45;;
72273;SDS011;60208;48.692;8.948;2023-12-20T01:02:52;12.27;;;9.80;;
72273;SDS011;60208;48.692;8.948;2023-12-20T01:05:17;12.18;;;8.80;;
72273;SDS011;60208;48.692;8.948;2023-12-20T01:07:43;20.13;;;15.98;;
72273;SDS011;60208;48.692;8.948;2023-12-20T01:10:08;46.22;;;36.50;;
72273;SDS011;60208;48.692;8.948;2023-12-20T01:12:33;21.75;;;19.38;;
72273;SDS011;60208;48.692;8.948;2023-12-20T01:14:59;16.00;;;10.45;;
72273;SDS011;60208;48.692;8.948;2023-12-20T01:17:24;13.40;;;10.75;;
72273;SDS011;60208;48.692;8.948;2023-12-20T01:19:49;24.20;;;17.40;;
72273;SDS011;60208;48.692;8.948;2023-12-20T01:22:14;58.38;;;41.85;;
72273;SDS011;60208;48.692;8.948;2023-12-20T01:24:40;58.70;;;41.00;;
72273;SDS011;60208;48.692;8.948;2023-12-20T01:27:05;5.80;;;4.53;;
72273;SDS011;60208;48.692;8.948;2023-12-20T01:29:30;16.73;;;11.70;;
72273;SDS011;60208;48.692;8.948;2023-12-20T01:31:55;6.05;;;4.75;;
72273;SDS011;60208;48.692;8.948;2023-12-20T01:34:21;6.65;;;4.93;;
72273;SDS011;60208;48.692;8.948;2023-12-20T01:36:46;3.17;;;1.95;;
72273;SDS011;60208;48.692;8.948;2023-12-20T01:39:11;1.50;;;1.40;;
72273;SDS011;60208;48.692;8.948;2023-12-20T01:41:36;1.58;;;1.40;;
72273;SDS011;60208;48.692;8.948;2023-12-20T01:44:02;1.73;;;1.37;;
72273;SDS011;60208;48.692;8.948;2023-12-20T01:46:27;1.52;;;1.02;;
72273;SDS011;60208;48.692;8.948;2023-12-20T01:48:52;1.73;;;1.10;;
72273;SDS011;60208;48.692;8.948;2023-12-20T01:51:17;1.10;;;0.90;;
72273;SDS011;60208;48.692;8.948;2023-12-20T01:53:43;1.23;;;1.13;;
72273;SDS011;60208;48.692;8.948;2023-12-20T01:56:09;0.70;;;0.70;;
72273;SDS011;60208;48.692;8.948;2023-12-20T01:58:34;2.10;;;0.75;;
72273;SDS011;60208;48.692;8.948;2023-12-20T02:01:02;0.90;;;0.73;;
72273;SDS011;60208;48.692;8.948;2023-12-20T02:03:27;0.60;;;0.60;;
72273;SDS011;60208;48.692;8.948;2023-12-20T02:05:52;0.50;;;0.50;;
72273;SDS011;60208;48.692;8.948;2023-12-20T02:08:18;0.50;;;0.50;;
72273;SDS011;60208;48.692;8.948;2023-12-20T02:10:43;1.50;;;0.47;;
72273;SDS011;60208;48.692;8.948;2023-12-20T02:13:08;0.50;;;0.50;;
72273;SDS011;60208;48.692;8.948;2023-12-20T02:15:34;1.35;;;0.55;;
72273;SDS011;60208;48.692;8.948;2023-12-20T02:18:01;0.40;;;0.40;;
72273;SDS011;60208;48.692;8.948;2023-12-20T02:20:27;0.40;;;0.40;;
72273;SDS011;60208;48.692;8.948;2023-12-20T02:22:52;0.40;;;0.40;;
72273;SDS011;60208;48.692;8.948;2023-12-20T02:25:17;0.40;;;0.40;;
72273;SDS011;60208;48.692;8.948;2023-12-20T02:27:42;0.40;;;0.40;;
72273;SDS011;60208;48.692;8.948;2023-12-20T02:30:09;0.30;;;0.30;;
72273;SDS011;60208;48.692;8.948;2023-12-20T02:32:35;0.38;;;0.38;;
72273;SDS011;60208;48.692;8.948;2023-12-20T02:35:00;0.40;;;0.40;;
72273;SDS011;60208;48.692;8.948;2023-12-20T02:37:25;0.30;;;0.30;;
72273;SDS011;60208;48.692;8.948;2023-12-20T02:39:51;0.30;;;0.30;;
72273;SDS011;60208;48.692;8.948;2023-12-20T02:42:16;0.30;;;0.30;;
72273;SDS011;60208;48.692;8.948;2023-12-20T02:44:41;0.30;;;0.30;;
72273;SDS011;60208;48.692;8.948;2023-12-20T02:47:06;0.30;;;0.30;;
72273;SDS011;60208;48.692;8.948;2023-12-20T02:49:31;0.30;;;0.30;;
72273;SDS011;60208;48.692;8.948;2023-12-20T02:51:57;0.30;;;0.30;;
72273;SDS011;60208;48.692;8.948;2023-12-20T02:54:22;0.20;;;0.20;;
72273;SDS011;60208;48.692;8.948;2023-12-20T02:56:47;0.30;;;0.30;;
72273;SDS011;60208;48.692;8.948;2023-12-20T02:59:12;0.75;;;0.30;;
72273;SDS011;60208;48.692;8.948;2023-12-20T03:01:41;0.30;;;0.30;;
72273;SDS011;60208;48.692;8.948;2023-12-20T03:04:07;0.30;;;0.30;;
72273;SDS011;60208;48.692;8.948;2023-12-20T03:06:32;0.30;;;0.20;;
72273;SDS011;60208;48.692;8.948;2023-12-20T03:08:57;0.20;;;0.20;;
72273;SDS011;60208;48.692;8.948;2023-12-20T03:11:26;0.40;;;0.30;;
72273;SDS011;60208;48.692;8.948;2023-12-20T03:13:51;2.03;;;0.30;;
72273;SDS011;60208;48.692;8.948;2023-12-20T03:16:16;1.65;;;0.30;;
72273;SDS011;60208;48.692;8.948;2023-12-20T03:18:41;0.20;;;0.20;;
72273;SDS011;60208;48.692;8.948;2023-12-20T03:21:07;0.20;;;0.20;;
72273;SDS011;60208;48.692;8.948;2023-12-20T03:23:32;1.42;;;0.30;;
72273;SDS011;60208;48.692;8.948;2023-12-20T03:25:58;3.40;;;0.30;;
72273;SDS011;60208;48.692;8.948;2023-12-20T03:28:24;0.75;;;0.28;;
72273;SDS011;60208;48.692;8.948;2023-12-20T03:30:49;0.40;;;0.20;;
72273;SDS011;60208;48.692;8.948;2023-12-20T03:33:15;0.20;;;0.20;;
72273;SDS011;60208;48.692;8.948;2023-12-20T03:35:40;1.10;;;0.20;;
72273;SDS011;60208;48.692;8.948;2023-12-20T03:38:05;1.45;;;0.20;;
72273;SDS011;60208;48.692;8.948;2023-12-20T03:40:30;0.20;;;0.20;;
72273;SDS011;60208;48.692;8.948;2023-12-20T03:42:56;0.90;;;0.27;;
72273;SDS011;60208;48.692;8.948;2023-12-20T03:45:21;0.20;;;0.20;;
72273;SDS011;60208;48.692;8.948;2023-12-20T03:47:46;0.20;;;0.20;;
72273;SDS011;60208;48.692;8.948;2023-12-20T03:50:11;1.80;;;0.30;;
72273;SDS011;60208;48.692;8.948;2023-12-20T03:52:37;0.60;;;0.30;;
72273;SDS011;60208;48.692;8.948;2023-12-20T03:55:02;0.20;;;0.20;;
72273;SDS011;60208;48.692;8.948;2023-12-20T03:57:28;0.30;;;0.30;;
72273;SDS011;60208;48.692;8.948;2023-12-20T03:59:53;0.32;;;0.20;;
72273;SDS011;60208;48.692;8.948;2023-12-20T04:02:18;0.83;;;0.30;;
72273;SDS011;60208;48.692;8.948;2023-12-20T04:04:43;0.20;;;0.20;;
72273;SDS011;60208;48.692;8.948;2023-12-20T04:07:09;0.30;;;0.30;;
72273;SDS011;60208;48.692;8.948;2023-12-20T04:09:34;0.20;;;0.20;;
72273;SDS011;60208;48.692;8.948;2023-12-20T04:11:59;0.20;;;0.20;;
72273;SDS011;60208;48.692;8.948;2023-12-20T04:14:24;1.03;;;0.60;;
72273;SDS011;60208;48.692;8.948;2023-12-20T04:16:50;0.50;;;0.35;;
72273;SDS011;60208;48.692;8.948;2023-12-20T04:19:15;0.50;;;0.40;;
72273;SDS011;60208;48.692;8.948;2023-12-20T04:21:40;0.20;;;0.20;;
72273;SDS011;60208;48.692;8.948;2023-12-20T04:24:05;0.20;;;0.20;;
72273;SDS011;60208;48.692;8.948;2023-12-20T04:26:31;0.40;;;0.20;;
72273;SDS011;60208;48.692;8.948;2023-12-20T04:28:56;0.35;;;0.35;;
72273;SDS011;60208;48.692;8.948;2023-12-20T04:31:21;0.30;;;0.30;;
72273;SDS011;60208;48.692;8.948;2023-12-20T04:33:47;0.23;;;0.23;;
72273;SDS011;60208;48.692;8.948;2023-12-20T04:36:12;0.40;;;0.40;;
72273;SDS011;60208;48.692;8.948;2023-12-20T04:38:37;0.32;;;0.30;;
72273;SDS011;60208;48.692;8.948;2023-12-20T04:41:02;0.30;;;0.30;;
72273;SDS011;60208;48.692;8.948;2023-12-20T04:43:28;1.95;;;1.15;;
72273;SDS011;60208;48.692;8.948;2023-12-20T04:45:54;1.92;;;1.83;;
72273;SDS011;60208;48.692;8.948;2023-12-20T04:48:20;0.95;;;0.68;;
72273;SDS011;60208;48.692;8.948;2023-12-20T04:50:45;0.50;;;0.50;;
72273;SDS011;60208;48.692;8.948;2023-12-20T04:53:10;0.45;;;0.45;;
72273;SDS011;60208;48.692;8.948;2023-12-20T04:55:35;0.50;;;0.50;;
72273;SDS011;60208;48.692;8.948;2023-12-20T04:58:01;0.40;;;0.40;;
72273;SDS011;60208;48.692;8.948;2023-12-20T05:00:26;0.40;;;0.40;;
72273;SDS011;60208;48.692;8.948;2023-12-20T05:02:52;1.23;;;0.20;;
72273;SDS011;60208;48.692;8.948;2023-12-20T05:05:17;1.05;;;0.20;;
72273;SDS011;60208;48.692;8.948;2023-12-20T05:07:43;0.50;;;0.30;;
72273;SDS011;60208;48.692;8.948;2023-12-20T05:10:08;0.45;;;0.30;;
72273;SDS011;60208;48.692;8.948;2023-12-20T05:12:34;1.20;;;0.35;;
72273;SDS011;60208;48.692;8.948;2023-12-20T05:14:59;0.20;;;0.20;;
72273;SDS011;60208;48.692;8.948;2023-12-20T05:17:24;0.28;;;0.28;;
72273;SDS011;60208;48.692;8.948;2023-12-20T05:19:50;0.22;;;0.22;;
72273;SDS011;60208;48.692;8.948;2023-12-20T05:22:15;0.40;;;0.40;;
72273;SDS011;60208;48.692;8.948;2023-12-20T05:24:40;0.20;;;0.20;;
72273;SDS011;60208;48.692;8.948;2023-12-20T05:27:06;0.20;;;0.20;;
72273;SDS011;60208;48.692;8.948;2023-12-20T05:29:31;1.10;;;0.20;;
72273;SDS011;60208;48.692;8.948;2023-12-20T05:31:57;1.90;;;0.30;;
72273;SDS011;60208;48.692;8.948;2023-12-20T05:34:23;0.47;;;0.40;;
72273;SDS011;60208;48.692;8.948;2023-12-20T05:36:48;0.20;;;0.20;;
72273;SDS011;60208;48.692;8.948;2023-12-20T05:39:13;0.37;;;0.37;;
72273;SDS011;60208;48.692;8.948;2023-12-20T05:41:38;0.40;;;0.40;;
72273;SDS011;60208;48.692;8.948;2023-12-20T05:44:04;0.50;;;0.40;;
72273;SDS011;60208;48.692;8.948;2023-12-20T05:46:29;0.47;;;0.40;;
72273;SDS011;60208;48.692;8.948;2023-12-20T05:48:54;0.50;;;0.50;;
72273;SDS011;60208;48.692;8.948;2023-12-20T05:51:19;0.40;;;0.40;;
72273;SDS011;60208;48.692;8.948;2023-12-20T05:53:45;0.50;;;0.50;;
72273;SDS011;60208;48.692;8.948;2023-12-20T05:56:10;0.80;;;0.80;;
72273;SDS011;60208;48.692;8.948;2023-12-20T05:58:35;0.80;;;0.60;;
72273;SDS011;60208;48.692;8.948;2023-12-20T06:01:03;1.20;;;0.70;;
72273;SDS011;60208;48.692;8.948;2023-12-20T06:03:28;2.00;;;0.50;;
72273;SDS011;60208;48.692;8.948;2023-12-20T06:05:54;1.20;;;1.00;;
72273;SDS011;60208;48.692;8.948;2023-12-20T06:08:19;1.55;;;1.02;;
72273;SDS011;60208;48.692;8.948;2023-12-20T06:10:44;0.70;;;0.70;;
72273;SDS011;60208;48.692;8.948;2023-12-20T06:13:09;1.37;;;1.07;;
72273;SDS011;60208;48.692;8.948;2023-12-20T06:15:35;0.47;;;0.47;;
72273;SDS011;60208;48.692;8.948;2023-12-20T06:18:00;1.25;;;0.70;;
72273;SDS011;60208;48.692;8.948;2023-12-20T06:20:26;1.13;;;0.70;;
72273;SDS011;60208;48.692;8.948;2023-12-20T06:22:51;1.15;;;0.77;;
72273;SDS011;60208;48.692;8.948;2023-12-20T06:25:16;2.65;;;1.20;;
72273;SDS011;60208;48.692;8.948;2023-12-20T06:27:41;1.23;;;0.70;;
72273;SDS011;60208;48.692;8.948;2023-12-20T06:30:07;0.82;;;0.80;;
72273;SDS011;60208;48.692;8.948;2023-12-20T06:32:34;1.45;;;0.82;;
72273;SDS011;60208;48.692;8.948;2023-12-20T06:34:59;3.83;;;1.00;;
72273;SDS011;60208;48.692;8.948;2023-12-20T06:37:24;2.30;;;1.20;;
72273;SDS011;60208;48.692;8.948;2023-12-20T06:39:50;2.65;;;1.00;;
72273;SDS011;60208;48.692;8.948;2023-12-20T06:42:15;2.77;;;0.90;;
72273;SDS011;60208;48.692;8.948;2023-12-20T06:44:40;1.20;;;0.70;;
72273;SDS011;60208;48.692;8.948;2023-12-20T06:47:05;2.25;;;0.60;;
72273;SDS011;60208;48.692;8.948;2023-12-20T06:49:31;0.50;;;0.50;;
72273;SDS011;60208;48.692;8.948;2023-12-20T06:51:56;1.00;;;0.60;;
72273;SDS011;60208;48.692;8.948;2023-12-20T06:54:22;1.38;;;0.50;;
72273;SDS011;60208;48.692;8.948;2023-12-20T06:56:47;0.60;;;0.60;;
72273;SDS011;60208;48.692;8.948;2023-12-20T06:59:12;2.00;;;0.60;;
72273;SDS011;60208;48.692;8.948;2023-12-20T07:01:37;1.67;;;0.57;;
72273;SDS011;60208;48.692;8.948;2023-12-20T07:04:03;2.17;;;0.70;;
72273;SDS011;60208;48.692;8.948;2023-12-20T07:06:28;0.57;;;0.50;;
72273;SDS011;60208;48.692;8.948;2023-12-20T07:08:53;2.30;;;1.20;;
72273;SDS011;60208;48.692;8.948;2023-12-20T07:11:19;2.40;;;1.30;;
72273;SDS011;60208;48.692;8.948;2023-12-20T07:13:44;2.35;;;1.27;;
72273;SDS011;60208;48.692;8.948;2023-12-20T07:16:09;1.37;;;1.23;;
72273;SDS011;60208;48.692;8.948;2023-12-20T07:18:34;1.60;;;1.27;;
72273;SDS011;60208;48.692;8.948;2023-12-20T07:20:59;1.50;;;1.30;;
72273;SDS011;60208;48.692;8.948;2023-12-20T07:23:25;1.50;;;1.40;;
72273;SDS011;60208;48.692;8.948;2023-12-20T07:25:51;3.22;;;2.45;;
72273;SDS011;60208;48.692;8.948;2023-12-20T07:28:16;4.90;;;4.40;;
72273;SDS011;60208;48.692;8.948;2023-12-20T07:30:42;2.47;;;2.03;;
72273;SDS011;60208;48.692;8.948;2023-12-20T07:33:07;3.78;;;2.65;;
72273;SDS011;60208;48.692;8.948;2023-12-20T07:35:34;4.40;;;2.50;;
72273;SDS011;60208;48.692;8.948;2023-12-20T07:37:59;4.60;;;2.78;;
72273;SDS011;60208;48.692;8.948;2023-12-20T07:40:24;4.10;;;3.13;;
72273;SDS011;60208;48.692;8.948;2023-12-20T07:42:49;4.93;;;3.72;;
72273;SDS011;60208;48.692;8.948;2023-12-20T07:45:15;3.23;;;2.90;;
72273;SDS011;60208;48.692;8.948;2023-12-20T07:47:40;3.25;;;2.00;;
72273;SDS011;60208;48.692;8.948;2023-12-20T07:50:06;2.20;;;2.00;;
72273;SDS011;60208;48.692;8.948;2023-12-20T07:52:31;3.10;;;2.40;;
72273;SDS011;60208;48.692;8.948;2023-12-20T07:54:56;2.87;;;1.80;;
72273;SDS011;60208;48.692;8.948;2023-12-20T07:57:23;2.55;;;1.85;;
72273;SDS011;60208;48.692;8.948;2023-12-20T07:59:48;3.70;;;2.25;;
72273;SDS011;60208;48.692;8.948;2023-12-20T08:02:14;4.23;;;2.80;;
72273;SDS011;60208;48.692;8.948;2023-12-20T08:04:39;4.03;;;3.05;;
72273;SDS011;60208;48.692;8.948;2023-12-20T08:07:05;2.95;;;2.08;;
72273;SDS011;60208;48.692;8.948;2023-12-20T08:09:31;4.35;;;3.42;;
72273;SDS011;60208;48.692;8.948;2023-12-20T08:11:57;2.30;;;2.10;;
72273;SDS011;60208;48.692;8.948;2023-12-20T08:14:24;2.35;;;2.15;;
72273;SDS011;60208;48.692;8.948;2023-12-20T08:16:50;3.73;;;2.53;;
72273;SDS011;60208;48.692;8.948;2023-12-20T08:19:15;3.33;;;3.03;;
72273;SDS011;60208;48.692;8.948;2023-12-20T08:21:40;2.45;;;2.22;;
72273;SDS011;60208;48.692;8.948;2023-12-20T08:24:05;2.53;;;2.30;;
72273;SDS011;60208;48.692;8.948;2023-12-20T08:26:31;2.80;;;2.30;;
72273;SDS011;60208;48.692;8.948;2023-12-20T08:28:56;2.63;;;1.80;;
72273;SDS011;60208;48.692;8.948;2023-12-20T08:31:21;1.80;;;1.70;;
72273;SDS011;60208;48.692;8.948;2023-12-20T08:33:47;2.13;;;1.95;;
72273;SDS011;60208;48.692;8.948;2023-12-20T08:36:13;2.47;;;1.70;;
72273;SDS011;60208;48.692;8.948;2023-12-20T08:38:38;2.33;;;2.00;;
72273;SDS011;60208;48.692;8.948;2023-12-20T08:41:04;2.90;;;1.98;;
72273;SDS011;60208;48.692;8.948;2023-12-20T08:43:33;2.67;;;2.10;;
72273;SDS011;60208;48.692;8.948;2023-12-20T08:45:58;3.50;;;1.95;;
72273;SDS011;60208;48.692;8.948;2023-12-20T08:48:24;1.83;;;1.60;;
72273;SDS011;60208;48.692;8.948;2023-12-20T08:50:49;2.05;;;1.85;;
72273;SDS011;60208;48.692;8.948;2023-12-20T08:53:16;4.75;;;2.30;;
72273;SDS011;60208;48.692;8.948;2023-12-20T08:55:42;6.07;;;2.45;;
72273;SDS011;60208;48.692;8.948;2023-12-20T08:58:07;4.05;;;2.15;;
72273;SDS011;60208;48.692;8.948;2023-12-20T09:00:33;3.00;;;1.65;;
72273;SDS011;60208;48.692;8.948;2023-12-20T09:02:58;4.03;;;1.88;;
72273;SDS011;60208;48.692;8.948;2023-12-20T09:05:24;3.78;;;1.70;;
72273;SDS011;60208;48.692;8.948;2023-12-20T09:07:49;4.45;;;1.85;;
72273;SDS011;60208;48.692;8.948;2023-12-20T09:10:14;3.33;;;1.67;;
72273;SDS011;60208;48.692;8.948;2023-12-20T09:12:40;6.35;;;1.75;;
72273;SDS011;60208;48.692;8.948;2023-12-20T09:15:06;5.88;;;2.25;;
72273;SDS011;60208;48.692;8.948;2023-12-20T09:17:31;6.00;;;1.70;;
72273;SDS011;60208;48.692;8.948;2023-12-20T09:19:56;2.78;;;1.50;;
72273;SDS011;60208;48.692;8.948;2023-12-20T09:22:21;3.53;;;1.75;;
72273;SDS011;60208;48.692;8.948;2023-12-20T09:24:47;3.83;;;1.48;;
72273;SDS011;60208;48.692;8.948;2023-12-20T09:27:12;4.28;;;1.70;;
72273;SDS011;60208;48.692;8.948;2023-12-20T09:29:37;4.20;;;1.67;;
72273;SDS011;60208;48.692;8.948;2023-12-20T09:32:03;4.90;;;1.63;;
72273;SDS011;60208;48.692;8.948;2023-12-20T09:34:28;1.38;;;1.20;;
72273;SDS011;60208;48.692;8.948;2023-12-20T09:36:54;5.03;;;1.75;;
72273;SDS011;60208;48.692;8.948;2023-12-20T09:39:20;2.95;;;1.50;;
72273;SDS011;60208;48.692;8.948;2023-12-20T09:41:51;3.47;;;1.40;;
72273;SDS011;60208;48.692;8.948;2023-12-20T09:44:22;2.83;;;1.20;;
72273;SDS011;60208;48.692;8.948;2023-12-20T09:46:49;5.70;;;1.27;;
72273;SDS011;60208;48.692;8.948;2023-12-20T09:49:16;3.28;;;1.27;;
72273;SDS011;60208;48.692;8.948;2023-12-20T09:51:42;4.00;;;1.70;;
72273;SDS011;60208;48.692;8.948;2023-12-20T09:54:07;4.75;;;1.88;;
72273;SDS011;60208;48.692;8.948;2023-12-20T09:56:33;5.20;;;1.38;;
72273;SDS011;60208;48.692;8.948;2023-12-20T09:58:59;5.95;;;1.15;;
72273;SDS011;60208;48.692;8.948;2023-12-20T10:01:24;3.90;;;1.38;;
72273;SDS011;60208;48.692;8.948;2023-12-20T10:03:50;3.80;;;1.10;;
72273;SDS011;60208;48.692;8.948;2023-12-20T10:06:16;3.72;;;1.35;;
72273;SDS011;60208;48.692;8.948;2023-12-20T10:08:41;6.03;;;1.40;;
72273;SDS011;60208;48.692;8.948;2023-12-20T10:11:06;2.30;;;1.13;;
72273;SDS011;60208;48.692;8.948;2023-12-20T10:13:32;4.78;;;1.30;;
72273;SDS011;60208;48.692;8.948;2023-12-20T10:15:57;6.80;;;1.37;;
72273;SDS011;60208;48.692;8.948;2023-12-20T10:18:22;6.30;;;1.70;;
72273;SDS011;60208;48.692;8.948;2023-12-20T10:20:48;4.95;;;1.30;;
72273;SDS011;60208;48.692;8.948;2023-12-20T10:25:55;11.48;;;4.82;;
72273;SDS011;60208;48.692;8.948;2023-12-20T10:28:21;8.52;;;1.60;;
72273;SDS011;60208;48.692;8.948;2023-12-20T10:30:48;3.83;;;1.40;;
72273;SDS011;60208;48.692;8.948;2023-12-20T10:33:13;4.72;;;1.90;;
72273;SDS011;60208;48.692;8.948;2023-12-20T10:35:47;6.00;;;1.70;;
72273;SDS011;60208;48.692;8.948;2023-12-20T10:38:13;6.10;;;1.45;;
72273;SDS011;60208;48.692;8.948;2023-12-20T10:40:39;4.90;;;2.28;;
72273;SDS011;60208;48.692;8.948;2023-12-20T10:43:05;4.40;;;1.30;;
72273;SDS011;60208;48.692;8.948;2023-12-20T10:45:30;4.78;;;1.45;;
72273;SDS011;60208;48.692;8.948;2023-12-20T10:47:55;5.18;;;1.60;;
72273;SDS011;60208;48.692;8.948;2023-12-20T10:50:21;5.07;;;1.30;;
72273;SDS011;60208;48.692;8.948;2023-12-20T10:52:46;4.35;;;1.30;;
72273;SDS011;60208;48.692;8.948;2023-12-20T10:55:12;3.63;;;1.40;;
72273;SDS011;60208;48.692;8.948;2023-12-20T10:57:37;6.45;;;1.45;;
72273;SDS011;60208;48.692;8.948;2023-12-20T11:00:03;3.10;;;1.25;;
72273;SDS011;60208;48.692;8.948;2023-12-20T11:02:33;5.75;;;1.38;;
72273;SDS011;60208;48.692;8.948;2023-12-20T11:07:30;3.72;;;1.38;;
72273;SDS011;60208;48.692;8.948;2023-12-20T11:09:58;5.10;;;1.33;;
72273;SDS011;60208;48.692;8.948;2023-12-20T11:12:36;4.53;;;1.13;;
72273;SDS011;60208;48.692;8.948;2023-12-20T11:15:02;2.97;;;1.30;;
72273;SDS011;60208;48.692;8.948;2023-12-20T11:17:29;5.65;;;2.13;;
72273;SDS011;60208;48.692;8.948;2023-12-20T11:22:20;6.80;;;1.57;;
72273;SDS011;60208;48.692;8.948;2023-12-20T11:24:46;6.07;;;1.70;;
72273;SDS011;60208;48.692;8.948;2023-12-20T11:27:12;5.10;;;1.50;;
72273;SDS011;60208;48.692;8.948;2023-12-20T11:29:37;5.50;;;1.40;;
72273;SDS011;60208;48.692;8.948;2023-12-20T11:32:49;3.50;;;1.67;;
72273;SDS011;60208;48.692;8.948;2023-12-20T11:37:37;3.95;;;1.30;;
72273;SDS011;60208;48.692;8.948;2023-12-20T11:40:03;6.30;;;1.50;;
72273;SDS011;60208;48.692;8.948;2023-12-20T11:42:33;5.70;;;1.42;;
72273;SDS011;60208;48.692;8.948;2023-12-20T11:45:02;5.70;;;1.77;;
72273;SDS011;60208;48.692;8.948;2023-12-20T11:47:28;5.82;;;1.50;;
72273;SDS011;60208;48.692;8.948;2023-12-20T11:49:54;5.38;;;1.42;;
72273;SDS011;60208;48.692;8.948;2023-12-20T11:52:21;5.75;;;1.55;;
72273;SDS011;60208;48.692;8.948;2023-12-20T11:54:46;6.10;;;1.83;;
72273;SDS011;60208;48.692;8.948;2023-12-20T11:57:12;9.20;;;2.20;;
72273;SDS011;60208;48.692;8.948;2023-12-20T11:59:38;3.93;;;1.47;;
72273;SDS011;60208;48.692;8.948;2023-12-20T12:02:03;6.03;;;1.90;;
72273;SDS011;60208;48.692;8.948;2023-12-20T12:04:28;5.85;;;1.55;;
72273;SDS011;60208;48.692;8.948;2023-12-20T12:06:53;5.23;;;1.47;;
72273;SDS011;60208;48.692;8.948;2023-12-20T12:09:19;4.40;;;1.45;;
72273;SDS011;60208;48.692;8.948;2023-12-20T12:11:44;4.65;;;2.17;;
72273;SDS011;60208;48.692;8.948;2023-12-20T12:14:09;6.15;;;1.73;;
72273;SDS011;60208;48.692;8.948;2023-12-20T12:16:35;5.97;;;2.58;;
72273;SDS011;60208;48.692;8.948;2023-12-20T12:19:00;7.43;;;1.83;;
72273;SDS011;60208;48.692;8.948;2023-12-20T12:21:25;6.00;;;1.65;;
72273;SDS011;60208;48.692;8.948;2023-12-20T12:23:51;5.45;;;1.75;;
72273;SDS011;60208;48.692;8.948;2023-12-20T12:26:16;5.22;;;2.40;;
72273;SDS011;60208;48.692;8.948;2023-12-20T12:28:41;6.28;;;1.55;;
72273;SDS011;60208;48.692;8.948;2023-12-20T12:31:07;4.90;;;1.50;;
72273;SDS011;60208;48.692;8.948;2023-12-20T12:33:33;2.75;;;1.30;;
72273;SDS011;60208;48.692;8.948;2023-12-20T12:35:58;4.68;;;1.33;;
72273;SDS011;60208;48.692;8.948;2023-12-20T12:38:24;5.65;;;1.58;;
72273;SDS011;60208;48.692;8.948;2023-12-20T12:40:50;4.82;;;1.45;;
72273;SDS011;60208;48.692;8.948;2023-12-20T12:43:15;6.53;;;1.33;;
72273;SDS011;60208;48.692;8.948;2023-12-20T12:45:40;5.80;;;1.63;;
72273;SDS011;60208;48.692;8.948;2023-12-20T12:48:05;5.63;;;1.40;;
72273;SDS011;60208;48.692;8.948;2023-12-20T12:50:31;4.55;;;1.40;;
72273;SDS011;60208;48.692;8.948;2023-12-20T12:52:56;3.47;;;1.13;;
72273;SDS011;60208;48.692;8.948;2023-12-20T12:55:22;4.40;;;1.08;;
72273;SDS011;60208;48.692;8.948;2023-12-20T12:57:47;6.63;;;1.38;;
72273;SDS011;60208;48.692;8.948;2023-12-20T13:00:13;4.32;;;1.13;;
72273;SDS011;60208;48.692;8.948;2023-12-20T13:02:38;7.03;;;1.55;;
72273;SDS011;60208;48.692;8.948;2023-12-20T13:05:06;4.50;;;1.17;;
72273;SDS011;60208;48.692;8.948;2023-12-20T13:07:32;3.75;;;1.25;;
72273;SDS011;60208;48.692;8.948;2023-12-20T13:09:58;5.60;;;1.90;;
72273;SDS011;60208;48.692;8.948;2023-12-20T13:12:23;2.53;;;1.10;;
72273;SDS011;60208;48.692;8.948;2023-12-20T13:14:48;5.28;;;1.55;;
72273;SDS011;60208;48.692;8.948;2023-12-20T13:17:14;6.15;;;1.70;;
72273;SDS011;60208;48.692;8.948;2023-12-20T13:19:39;2.95;;;1.05;;
72273;SDS011;60208;48.692;8.948;2023-12-20T13:22:04;4.05;;;1.20;;
72273;SDS011;60208;48.692;8.948;2023-12-20T13:24:29;4.35;;;1.08;;
72273;SDS011;60208;48.692;8.948;2023-12-20T13:26:55;4.93;;;1.37;;
72273;SDS011;60208;48.692;8.948;2023-12-20T13:29:20;2.95;;;1.00;;
72273;SDS011;60208;48.692;8.948;2023-12-20T13:31:45;6.07;;;2.03;;
72273;SDS011;60208;48.692;8.948;2023-12-20T13:34:10;4.32;;;1.45;;
72273;SDS011;60208;48.692;8.948;2023-12-20T13:36:36;5.03;;;1.55;;
72273;SDS011;60208;48.692;8.948;2023-12-20T13:39:02;3.65;;;1.05;;
72273;SDS011;60208;48.692;8.948;2023-12-20T13:41:29;4.45;;;1.60;;
72273;SDS011;60208;48.692;8.948;2023-12-20T13:43:55;4.80;;;1.38;;
72273;SDS011;60208;48.692;8.948;2023-12-20T13:46:20;4.15;;;1.00;;
72273;SDS011;60208;48.692;8.948;2023-12-20T13:48:45;6.65;;;2.00;;
72273;SDS011;60208;48.692;8.948;2023-12-20T13:51:10;5.82;;;1.42;;
72273;SDS011;60208;48.692;8.948;2023-12-20T13:53:36;5.83;;;2.00;;
72273;SDS011;60208;48.692;8.948;2023-12-20T13:56:01;4.73;;;1.50;;
72273;SDS011;60208;48.692;8.948;2023-12-20T13:58:26;4.60;;;1.70;;
72273;SDS011;60208;48.692;8.948;2023-12-20T14:00:51;4.85;;;1.17;;
72273;SDS011;60208;48.692;8.948;2023-12-20T14:03:17;4.10;;;1.27;;
72273;SDS011;60208;48.692;8.948;2023-12-20T14:05:42;2.70;;;1.00;;
72273;SDS011;60208;48.692;8.948;2023-12-20T14:08:07;5.73;;;2.50;;
72273;SDS011;60208;48.692;8.948;2023-12-20T14:10:33;6.03;;;1.40;;
72273;SDS011;60208;48.692;8.948;2023-12-20T14:12:58;4.27;;;1.03;;
72273;SDS011;60208;48.692;8.948;2023-12-20T14:15:23;4.57;;;1.20;;
72273;SDS011;60208;48.692;8.948;2023-12-20T14:17:50;3.80;;;1.35;;
72273;SDS011;60208;48.692;8.948;2023-12-20T14:20:15;4.60;;;1.30;;
72273;SDS011;60208;48.692;8.948;2023-12-20T14:22:41;5.15;;;1.40;;
72273;SDS011;60208;48.692;8.948;2023-12-20T14:25:13;4.65;;;1.42;;
72273;SDS011;60208;48.692;8.948;2023-12-20T14:27:39;6.88;;;1.15;;
72273;SDS011;60208;48.692;8.948;2023-12-20T14:30:04;3.25;;;1.10;;
72273;SDS011;60208;48.692;8.948;2023-12-20T14:32:30;2.53;;;1.08;;
72273;SDS011;60208;48.692;8.948;2023-12-20T14:34:56;3.47;;;1.08;;
72273;SDS011;60208;48.692;8.948;2023-12-20T14:37:21;5.05;;;1.38;;
72273;SDS011;60208;48.692;8.948;2023-12-20T14:39:46;5.45;;;1.50;;
72273;SDS011;60208;48.692;8.948;2023-12-20T14:42:11;2.28;;;0.98;;
72273;SDS011;60208;48.692;8.948;2023-12-20T14:44:40;3.65;;;1.35;;
72273;SDS011;60208;48.692;8.948;2023-12-20T14:47:06;4.07;;;1.10;;